Latest Coastal Weather Observations for Yanakie

IDV60701

Issued at 3:45 pm EDT Monday 20 October 2014 (issued every 10 minutes, with the page automatically refreshed every 10 minutes)

About coastal observations | Map of coastal stations | Coastal observations for VIC | Marine services | Other Formats
Station Details ID: 085301 Name: YANAKIE Lat: -38.81 Lon: 146.19 Height: 13.3 m
Data from the previous 72 hours. | See also: Recent months at Yanakie
Date/Time
EDT
Temp

°C
Wind Pressure Rain
since 9am
mm
Weather Cloud Vis
km
Sea
Height
m
Swell
Dir
 
Speed
knots
Gust
knots
hPa Trend Height
m
Period
s
Dir
20/03:30pm 15.1 E 14 23 1030.5 - 0.0 - - - - - - -
20/03:00pm 14.7 E 16 25 1030.7 - 0.0 - - - - - - -
20/02:30pm 15.4 E 13 22 1030.8 - 0.0 - - - - - - -
20/02:00pm 14.9 E 13 21 1031.1 - 0.0 - - - - - - -
20/01:30pm 15.2 E 13 22 1031.3 - 0.0 - - - - - - -
20/01:00pm 14.4 E 13 24 1031.4 - 0.0 - - - - - - -
20/12:30pm 14.9 E 13 20 1031.7 - 0.0 - - - - - - -
20/12:00pm 14.1 E 14 21 1031.7 - 0.0 - - - - - - -
20/11:30am 13.9 E 11 18 1032.0 - 0.0 - - - - - - -
20/11:00am 14.9 E 11 16 1032.2 - 0.0 - - - - - - -
20/10:30am 14.3 E 11 17 1032.2 - 0.0 - - - - - - -
20/10:00am 13.8 E 10 15 1032.2 - 0.0 - - - - - - -
20/09:30am 12.4 ESE 11 15 1032.0 - 0.0 - - - - - - -
20/09:00am 13.1 ESE 7 10 1031.7 - 0.0 - - - - - - -
20/08:30am 12.4 SE 4 6 1031.5 - 0.0 - - - - - - -
20/08:00am 10.8 SSE 3 5 1031.5 - 0.0 - - - - - - -
20/07:30am 7.8 SSE 2 3 1031.3 - 0.0 - - - - - - -
20/07:00am 5.0 CALM 0 0 1030.9 - 0.0 - - - - - - -
20/06:30am 5.5 ESE 2 3 1030.7 - 0.0 - - - - - - -
20/06:00am 7.5 ESE 4 5 1030.2 - 0.0 - - - - - - -
20/05:30am 5.9 E 4 5 1030.3 - 0.0 - - - - - - -
20/05:00am 6.2 S 2 3 1030.2 - 0.0 - - - - - - -
20/04:30am 7.2 SSE 3 5 1029.8 - 0.0 - - - - - - -
20/04:00am 7.9 S 4 6 1029.6 - 0.0 - - - - - - -
20/03:30am 9.0 S 5 8 1029.7 - 0.0 - - - - - - -
20/03:00am 9.3 S 7 10 1030.0 - 0.0 - - - - - - -
20/02:30am 9.9 S 9 14 1029.5 - 0.0 - - - - - - -
20/02:00am 10.0 SSW 8 13 1029.6 - 0.0 - - - - - - -
20/01:30am 10.3 SSW 8 12 1029.5 - 0.0 - - - - - - -
20/01:00am 10.7 SSW 11 15 1029.2 - 0.0 - - - - - - -
20/12:30am 11.0 SSW 11 16 1028.9 - 0.0 - - - - - - -
20/12:00am 11.5 SSW 14 19 1028.7 - 0.0 - - - - - - -
 
Date/Time
EDT
Temp

°C
Wind Pressure Rain
since 9am
mm
Weather Cloud Vis
km
Sea
Height
m
Swell
Dir
 
Speed
knots
Gust
knots
hPa Trend Height
m
Period
s
Dir
19/11:30pm 12.0 SW 15 19 1028.4 - 0.0 - - - - - - -
19/11:00pm 11.9 SSW 16 21 1028.2 - 0.0 - - - - - - -
19/10:30pm 12.1 SW 15 20 1028.1 - 0.0 - - - - - - -
19/10:00pm 12.1 SW 15 20 1027.6 - 0.0 - - - - - - -
19/09:30pm 12.5 SW 15 20 1026.7 - 0.0 - - - - - - -
19/09:00pm 12.4 SSW 14 22 1025.6 - 0.0 - - - - - - -
19/08:30pm 12.9 SSW 17 23 1024.7 - 0.0 - - - - - - -
19/08:00pm 13.5 WSW 11 16 1024.2 - 0.0 - - - - - - -
19/07:30pm 13.4 SW 14 19 1023.6 - 0.0 - - - - - - -
19/07:00pm 14.2 SW 16 22 1022.9 - 0.0 - - - - - - -
19/06:30pm 14.2 SW 15 18 1022.3 - 0.0 - - - - - - -
19/06:00pm 14.8 SW 14 17 1021.6 - 0.0 - - - - - - -
19/05:30pm 15.5 SW 14 18 1021.0 - 0.0 - - - - - - -
19/05:00pm 16.0 SW 17 22 1020.3 - 0.0 - - - - - - -
19/04:30pm 16.5 SSW 13 16 1019.4 - 0.0 - - - - - - -
19/04:00pm 16.3 SSW 17 21 1019.3 - 0.0 - - - - - - -
19/03:30pm 16.7 SW 17 22 1019.0 - 0.0 - - - - - - -
19/03:00pm 17.4 SW 18 22 1018.8 - 0.0 - - - - - - -
19/02:30pm 18.2 SSW 14 19 1018.5 - 0.0 - - - - - - -
19/02:00pm 18.6 SSW 12 16 1018.5 - 0.0 - - - - - - -
19/01:30pm 19.1 SSW 13 18 1018.6 - 0.0 - - - - - - -
19/01:14pm 20.4 SSW 16 20 1018.5 - 0.0 - - - - - - -
19/01:00pm 25.9 NW 16 24 1017.9 - 0.0 - - - - - - -
19/12:30pm 24.7 NW 20 28 1018.0 - 0.0 - - - - - - -
19/12:12pm 25.1 NW 19 29 1018.0 - 0.0 - - - - - - -
19/12:00pm 24.7 NW 15 22 1018.3 - 0.0 - - - - - - -
19/11:30am 23.6 NW 12 19 1018.5 - 0.0 - - - - - - -
19/11:00am 22.1 WSW 4 7 1019.1 - 0.0 - - - - - - -
19/10:30am 20.2 SSW 5 6 1019.4 - 0.0 - - - - - - -
19/10:00am 20.0 SSW 6 9 1019.7 - 0.0 - - - - - - -
19/09:30am 17.7 SSW 6 8 1019.9 - 0.0 - - - - - - -
19/09:00am 19.5 SW 6 8 1020.0 - 0.0 - - - - - - -
19/08:30am 17.5 S 5 8 1019.9 - 0.0 - - - - - - -
19/08:00am 17.5 SW 6 9 1019.6 - 0.0 - - - - - - -
19/07:30am 16.3 S 5 8 1019.1 - 0.0 - - - - - - -
19/07:00am 18.3 NW 9 14 1018.5 - 0.0 - - - - - - -
19/06:30am 18.4 NNW 9 13 1018.1 - 0.0 - - - - - - -
19/06:00am 18.7 NNW 11 16 1017.9 - 0.0 - - - - - - -
19/05:30am 18.0 NNW 9 13 1018.0 - 0.0 - - - - - - -
19/05:00am 16.9 N 7 10 1018.0 - 0.0 - - - - - - -
19/04:30am 16.2 N 4 6 1018.3 - 0.0 - - - - - - -
19/04:00am 16.6 NNE 4 6 1018.4 - 0.0 - - - - - - -
19/03:30am 16.8 NE 6 8 1018.6 - 0.0 - - - - - - -
19/03:00am 17.7 NNE 7 10 1018.9 - 0.0 - - - - - - -
19/02:30am 15.6 NNE 5 10 1019.1 - 0.0 - - - - - - -
19/02:00am 14.6 ENE 6 8 1019.5 - 0.0 - - - - - - -
19/01:30am 15.2 NE 6 8 1019.6 - 0.0 - - - - - - -
19/01:00am 15.4 ENE 8 11 1020.1 - 0.0 - - - - - - -
19/12:30am 15.0 ENE 6 10 1021.0 - 0.0 - - - - - - -
19/12:00am 14.0 E 7 10 1021.4 - 0.0 - - - - - - -
 
Date/Time
EDT
Temp

°C
Wind Pressure Rain
since 9am
mm
Weather Cloud Vis
km
Sea
Height
m
Swell
Dir
 
Speed
knots
Gust
knots
hPa Trend Height
m
Period
s
Dir
18/11:30pm 14.0 ENE 8 11 1021.9 - 0.0 - - - - - - -
18/11:00pm 14.4 ENE 7 10 1022.5 - 0.0 - - - - - - -
18/10:30pm 14.1 ENE 8 10 1022.8 - 0.0 - - - - - - -
18/10:00pm 14.2 ENE 7 10 1023.4 - 0.0 - - - - - - -
18/09:30pm 14.4 ENE 8 10 1023.6 - 0.0 - - - - - - -
18/09:00pm 14.5 ENE 8 11 1023.4 - 0.0 - - - - - - -
18/08:30pm 14.7 ENE 7 9 1023.3 - 0.0 - - - - - - -
18/08:00pm 14.5 E 6 9 1023.1 - 0.0 - - - - - - -
18/07:30pm 15.2 E 5 8 1023.1 - 0.0 - - - - - - -
18/07:00pm 15.9 ESE 4 6 1023.0 - 0.0 - - - - - - -
18/06:30pm 16.3 SSE 2 4 1023.2 - 0.0 - - - - - - -
18/06:00pm 17.2 ESE 4 7 1022.9 - 0.0 - - - - - - -
18/05:30pm 16.9 E 7 11 1021.8 - 0.0 - - - - - - -
18/05:00pm 17.1 E 7 10 1021.6 - 0.0 - - - - - - -
18/04:30pm 18.3 ENE 6 9 1022.1 - 0.0 - - - - - - -
18/04:00pm 19.7 ENE 5 7 1022.8 - 0.0 - - - - - - -
18/03:30pm 20.9 ENE 4 6 1022.8 - 0.0 - - - - - - -
18/03:00pm 21.1 N 6 9 1023.1 - 0.0 - - - - - - -
18/02:30pm 21.5 NE 5 7 1023.4 - 0.0 - - - - - - -
18/02:00pm 21.3 N 2 5 1023.7 - 0.0 - - - - - - -
18/01:30pm 19.4 ENE 4 6 1024.3 - 0.0 - - - - - - -
18/01:00pm 18.2 ENE 5 8 1024.3 - 0.0 - - - - - - -
18/12:30pm 17.9 ENE 6 9 1024.8 - 0.0 - - - - - - -
18/12:00pm 17.4 ENE 7 9 1025.5 - 0.0 - - - - - - -
18/11:30am 16.8 ENE 7 9 1025.9 - 0.0 - - - - - - -
18/11:00am 16.3 ENE 6 9 1026.3 - 0.0 - - - - - - -
18/10:30am 15.4 ENE 8 11 1026.6 - 0.0 - - - - - - -
18/10:00am 15.2 ENE 7 10 1026.7 - 0.0 - - - - - - -
18/09:30am 14.2 ENE 9 13 1026.8 - 0.0 - - - - - - -
18/09:00am 13.7 ENE 8 13 1026.9 - 0.0 - - - - - - -
18/08:30am 13.4 ENE 9 14 1026.7 - 0.0 - - - - - - -
18/08:00am 12.9 ENE 9 14 1026.6 - 0.0 - - - - - - -
18/07:30am 12.3 ENE 8 12 1026.6 - 0.0 - - - - - - -
18/07:00am 11.5 ENE 8 11 1026.3 - 0.0 - - - - - - -
18/06:30am 10.9 ENE 7 10 1026.0 - 0.0 - - - - - - -
18/06:00am 10.7 ENE 8 12 1025.5 - 0.0 - - - - - - -
18/05:30am 10.5 ENE 5 10 1025.2 - 0.0 - - - - - - -
18/05:00am 11.0 ENE 9 14 1025.2 - 0.0 - - - - - - -
18/04:30am 11.0 ENE 9 13 1025.4 - 0.0 - - - - - - -
18/04:00am 11.0 ENE 9 14 1025.5 - 0.0 - - - - - - -
18/03:30am 10.9 ENE 8 12 1025.7 - 0.0 - - - - - - -
18/03:00am 11.0 ENE 8 12 1025.6 - 0.0 - - - - - - -
18/02:30am 11.3 ENE 10 15 1025.6 - 0.0 - - - - - - -
18/02:00am 11.4 ENE 9 13 1026.1 - 0.0 - - - - - - -
18/01:30am 11.4 ENE 9 15 1026.4 - 0.0 - - - - - - -
18/01:00am 11.3 ENE 8 12 1026.8 - 0.0 - - - - - - -
18/12:30am 11.6 NE 10 16 1026.7 - 0.0 - - - - - - -
18/12:00am 11.5 ENE 9 13 1026.9 - 0.0 - - - - - - -
 
Date/Time
EDT
Temp

°C
Wind Pressure Rain
since 9am
mm
Weather Cloud Vis
km
Sea
Height
m
Swell
Dir
 
Speed
knots
Gust
knots
hPa Trend Height
m
Period
s
Dir
17/11:30pm 11.4 NE 8 14 1027.2 - 0.0 - - - - - - -
17/11:00pm 11.4 NE 8 13 1027.4 - 0.0 - - - - - - -
17/10:30pm 11.7 NE 7 13 1027.7 - 0.0 - - - - - - -
17/10:00pm 12.1 NE 7 13 1027.7 - 0.0 - - - - - - -
17/09:30pm 12.4 ENE 9 14 1027.6 - 0.0 - - - - - - -
17/09:00pm 12.7 ENE 11 15 1027.1 - 0.0 - - - - - - -
17/08:30pm 12.9 ENE 12 19 1026.8 - 0.0 - - - - - - -
17/08:00pm 12.8 ENE 10 15 1026.3 - 0.0 - - - - - - -
17/07:30pm 12.8 E 10 14 1026.0 - 0.0 - - - - - - -
17/07:00pm 13.6 E 10 15 1025.7 - 0.0 - - - - - - -
17/06:30pm 13.7 E 8 12 1025.9 - 0.0 - - - - - - -
17/06:00pm 14.2 ESE 6 10 1026.0 - 0.0 - - - - - - -
17/05:30pm 14.1 S 5 7 1026.0 - 0.0 - - - - - - -
17/05:00pm 14.0 SSW 6 8 1026.2 - 0.0 - - - - - - -
17/04:30pm 15.3 S 6 9 1026.2 - 0.0 - - - - - - -
17/04:00pm 14.5 SSW 7 11 1026.3 - 0.0 - - - - - - -

Other Formats:

Comma delimited format used in spreadsheet applications
http://www.bom.gov.au/fwo/IDV60701/IDV60701.94911.axf

JavaScript Object Notation format (JSON) in row-major order
http://www.bom.gov.au/fwo/IDV60701/IDV60701.94911.json